Calumet, Michigan
Current Conditions -  °F | °C
As of 8:27 PM on Wednesday 26 Nov 2014 (Local Time) from KCMX Reporting Station
Light Snow Light Snow  
Wind Chill:   Ceiling: 1400
Heat Index: 18°   Visibility: 1.5mi
Dew Point: 12°   Wind: 12mph
Humidity: 78%   Direction: 360°N
Pressure: 30.19"   Gusts: 22mph
Location:  47.25°N, 88.45°W
Report Text: KCMX 270127Z AUTO 36010G19KT 1 1/2SM -SN OVC014 M08/M11 A3019 RMK AO2 PK WND 01026/0107 P0000 T10781111
Loading
Personal Weather Stations






























Interactive Weather Map New forecast layout! Learn more

10-Day Weather Forecast

Advertisements
Track Severe Weather on mobile